createdAt,value
2023-03-11T00:01:41.173Z,20.13
2023-03-11T00:06:44.547Z,23.95
2023-03-11T00:11:49.785Z,27.02
2023-03-11T00:16:53.114Z,19.63
2023-03-11T00:21:56.662Z,18.23
2023-03-11T00:27:01.507Z,21.30
2023-03-11T00:32:05.159Z,23.10
2023-03-11T00:37:08.537Z,22.45
2023-03-11T00:42:13.924Z,24.95
2023-03-11T00:47:17.240Z,30.17
2023-03-11T00:52:20.631Z,22.45
2023-03-11T00:57:29.134Z,33.40
2023-03-11T01:02:32.640Z,22.65
2023-03-11T01:07:36.341Z,27.83
2023-03-11T01:12:42.118Z,20.57
2023-03-11T01:22:49.314Z,15.93
2023-03-11T01:27:54.127Z,11.27
2023-03-11T01:32:58.037Z,10.38
2023-03-11T01:38:01.616Z,8.88
2023-03-11T01:43:27.323Z,7.55
2023-03-11T01:48:31.315Z,7.30
2023-03-11T01:53:35.964Z,7.23
2023-03-11T01:58:45.070Z,4.00
2023-03-11T02:03:49.939Z,2.60
2023-03-11T02:08:55.057Z,4.75
2023-03-11T02:19:16.245Z,8.02
2023-03-11T02:29:29.340Z,3.28
2023-03-11T02:34:35.537Z,7.18
2023-03-11T02:44:54.989Z,4.63
2023-03-11T02:49:58.409Z,4.00
2023-03-11T02:55:03.402Z,9.18
2023-03-11T03:00:15.699Z,4.72
2023-03-11T03:05:25.657Z,6.28
2023-03-11T03:10:29.656Z,7.30
2023-03-11T03:15:35.472Z,8.65
2023-03-11T03:20:38.973Z,6.65
2023-03-11T03:25:43.416Z,7.22
2023-03-11T03:30:48.488Z,6.60
2023-03-11T03:41:02.272Z,9.45
2023-03-11T03:46:07.831Z,5.50
2023-03-11T03:51:17.119Z,7.65
2023-03-11T03:56:39.851Z,6.05
2023-03-11T04:01:45.248Z,6.97
2023-03-11T04:06:49.637Z,9.35
2023-03-11T04:11:55.389Z,8.95
2023-03-11T04:17:00.348Z,7.78
2023-03-11T04:22:05.290Z,6.43
2023-03-11T04:27:10.355Z,8.10
2023-03-11T04:32:17.469Z,6.47
2023-03-11T04:37:22.652Z,7.53
2023-03-11T04:42:27.357Z,3.08
2023-03-11T04:47:33.072Z,4.60
2023-03-11T04:52:37.004Z,5.03
2023-03-11T04:57:40.698Z,6.93
2023-03-11T05:02:46.779Z,3.90
2023-03-11T05:07:51.622Z,4.85
2023-03-11T05:12:55.244Z,7.03
2023-03-11T05:18:03.681Z,6.35
2023-03-11T05:23:07.904Z,6.70
2023-03-11T05:28:13.531Z,9.50
2023-03-11T05:33:24.521Z,6.45
2023-03-11T05:38:29.062Z,8.88
2023-03-11T05:43:32.429Z,9.57
2023-03-11T05:48:37.458Z,7.63
2023-03-11T05:53:48.069Z,7.40
2023-03-11T05:58:57.483Z,6.82
2023-03-11T06:04:04.401Z,12.80
2023-03-11T06:09:12.256Z,7.43
2023-03-11T06:14:17.108Z,8.65
2023-03-11T06:19:25.370Z,6.18
2023-03-11T06:24:28.888Z,9.90
2023-03-11T06:29:32.553Z,6.28
2023-03-11T06:34:37.714Z,9.00
2023-03-11T06:39:42.478Z,11.80
2023-03-11T06:44:49.973Z,13.38
2023-03-11T06:49:55.229Z,14.90
2023-03-11T06:54:58.953Z,10.25
2023-03-11T07:00:07.793Z,11.48
2023-03-11T07:05:14.251Z,13.82
2023-03-11T07:15:21.485Z,10.43
2023-03-11T07:20:26.261Z,13.88
2023-03-11T07:25:29.571Z,12.30
2023-03-11T07:30:34.535Z,10.00
2023-03-11T07:35:39.480Z,15.00
2023-03-11T07:40:43.705Z,13.55
2023-03-11T07:45:47.003Z,11.73
2023-03-11T07:51:00.663Z,15.13
2023-03-11T07:56:05.345Z,15.27
2023-03-11T08:01:11.713Z,13.63
2023-03-11T08:06:18.795Z,14.55
2023-03-11T08:11:23.136Z,20.58
2023-03-11T08:16:27.098Z,15.85
2023-03-11T08:21:32.333Z,12.73
2023-03-11T08:26:36.457Z,17.92
2023-03-11T08:31:39.921Z,10.60
2023-03-11T08:36:45.136Z,10.73
2023-03-11T08:46:51.773Z,14.00
2023-03-11T08:51:56.699Z,12.38
2023-03-11T08:57:03.007Z,16.17
2023-03-11T09:02:06.437Z,12.02
2023-03-11T09:07:13.054Z,18.27
2023-03-11T09:12:16.927Z,10.90
2023-03-11T09:17:21.467Z,12.50
2023-03-11T09:22:27.027Z,10.40
2023-03-11T09:27:30.586Z,16.77
2023-03-11T09:32:34.120Z,12.90
2023-03-11T09:37:38.833Z,14.07
2023-03-11T09:42:48.405Z,10.60
2023-03-11T09:48:11.974Z,13.85
2023-03-11T09:53:29.373Z,14.18
2023-03-11T09:58:39.525Z,18.60
2023-03-11T10:03:44.713Z,14.85
2023-03-11T10:14:08.155Z,14.90
2023-03-11T10:19:21.374Z,17.55
2023-03-11T10:24:42.288Z,13.77
2023-03-11T10:29:53.371Z,13.15
2023-03-11T10:35:04.431Z,20.83
2023-03-11T10:40:23.880Z,18.92
2023-03-11T10:45:33.324Z,12.85
2023-03-11T10:50:36.942Z,21.25
2023-03-11T10:55:48.623Z,10.73
2023-03-11T11:01:04.645Z,14.90
2023-03-11T11:06:20.983Z,15.98
2023-03-11T11:11:25.850Z,15.02
2023-03-11T11:16:29.590Z,15.73
2023-03-11T11:21:35.896Z,11.77
2023-03-11T11:26:40.596Z,18.83
2023-03-11T11:31:46.009Z,14.10
2023-03-11T11:36:50.018Z,13.70
2023-03-11T11:41:55.647Z,14.10
2023-03-11T11:47:06.276Z,17.92
2023-03-11T11:52:15.250Z,11.80
2023-03-11T11:57:22.564Z,12.75
2023-03-11T12:02:43.638Z,13.35
2023-03-11T12:08:06.753Z,13.63
2023-03-11T12:13:24.278Z,11.52
2023-03-11T12:18:32.485Z,13.45
2023-03-11T12:23:47.242Z,12.57
2023-03-11T12:28:57.648Z,12.48
2023-03-11T12:34:04.168Z,13.55
2023-03-11T12:39:19.434Z,14.60
2023-03-11T12:44:26.815Z,14.32
2023-03-11T12:49:31.485Z,9.82
2023-03-11T12:54:37.339Z,11.30
2023-03-11T13:00:18.178Z,18.05
2023-03-11T13:05:27.535Z,14.57
2023-03-11T13:10:38.009Z,14.63
2023-03-11T13:15:43.126Z,11.43
2023-03-11T13:26:29.077Z,7.82
2023-03-11T13:31:48.493Z,8.75
2023-03-11T13:37:06.147Z,10.98
2023-03-11T13:42:21.542Z,8.73
2023-03-11T13:47:27.238Z,6.97
2023-03-11T13:52:34.218Z,8.63
2023-03-11T13:57:38.720Z,11.38
2023-03-11T14:02:47.560Z,10.23
2023-03-11T14:07:51.328Z,8.20
2023-03-11T14:13:16.311Z,7.18
2023-03-11T14:18:29.882Z,8.38
2023-03-11T14:23:36.201Z,8.30
2023-03-11T14:28:45.030Z,9.85
2023-03-11T14:33:57.654Z,4.70
2023-03-11T14:39:00.985Z,6.90
2023-03-11T14:44:04.888Z,7.45
2023-03-11T14:49:16.237Z,10.88
2023-03-11T14:54:24.991Z,5.78
2023-03-11T14:59:33.073Z,5.38
2023-03-11T15:04:44.215Z,7.20
2023-03-11T15:09:48.142Z,5.68
2023-03-11T15:14:52.013Z,3.27
2023-03-11T15:19:57.479Z,3.78
2023-03-11T15:25:04.156Z,6.70
2023-03-11T15:30:19.939Z,5.03
2023-03-11T15:35:26.731Z,4.00
2023-03-11T15:40:44.496Z,7.03
2023-03-11T15:45:49.099Z,5.43
2023-03-11T15:50:55.318Z,6.50
2023-03-11T15:56:07.389Z,4.55
2023-03-11T16:01:11.488Z,4.25
2023-03-11T16:06:16.699Z,6.55
2023-03-11T16:11:20.012Z,5.00
2023-03-11T16:16:23.592Z,4.03
2023-03-11T16:21:34.823Z,4.95
2023-03-11T16:26:38.285Z,3.58
2023-03-11T16:31:41.750Z,5.50
2023-03-11T16:36:46.492Z,4.45
2023-03-11T16:41:49.875Z,2.10
2023-03-11T16:46:53.213Z,4.82
2023-03-11T16:51:57.884Z,4.28
2023-03-11T16:57:01.455Z,2.85
2023-03-11T17:02:05.091Z,1.90
2023-03-11T17:07:10.989Z,3.17
2023-03-11T17:12:16.683Z,6.05
2023-03-11T17:17:21.256Z,2.60
2023-03-11T17:22:26.149Z,6.15
2023-03-11T17:32:36.802Z,11.80
2023-03-11T17:37:42.018Z,13.15
2023-03-11T17:42:46.018Z,15.02
2023-03-11T17:47:49.686Z,17.98
2023-03-11T17:52:56.521Z,11.27
2023-03-11T17:58:00.134Z,8.45
2023-03-11T18:03:03.564Z,6.75
2023-03-11T18:08:08.277Z,5.75
2023-03-11T18:13:11.629Z,11.80
2023-03-11T18:18:15.086Z,10.27
2023-03-11T18:23:19.874Z,8.10
2023-03-11T18:28:23.318Z,9.90
2023-03-11T18:33:27.185Z,7.80
2023-03-11T18:38:32.044Z,9.50
2023-03-11T18:43:35.859Z,5.45
2023-03-11T18:48:39.514Z,6.10
2023-03-11T18:53:44.170Z,5.57
2023-03-11T18:58:47.793Z,8.98
2023-03-11T19:03:52.597Z,15.10
2023-03-11T19:09:00.567Z,5.97
2023-03-11T19:14:03.942Z,5.75
2023-03-11T19:19:08.694Z,5.80
2023-03-11T19:24:14.452Z,2.95
2023-03-11T19:34:22.381Z,4.68
2023-03-11T19:39:27.487Z,4.10
2023-03-11T19:44:30.864Z,3.25
2023-03-11T19:49:34.529Z,1.10
2023-03-11T19:54:39.335Z,2.22
2023-03-11T19:59:42.916Z,6.20
2023-03-11T20:04:46.354Z,7.43
2023-03-11T20:09:51.104Z,7.90
2023-03-11T20:14:54.519Z,5.88
2023-03-11T20:19:58.950Z,3.08
2023-03-11T20:25:04.155Z,4.32
2023-03-11T20:30:08.775Z,3.47
2023-03-11T20:35:12.694Z,2.17
2023-03-11T20:40:19.167Z,4.50
2023-03-11T20:45:22.694Z,5.05
2023-03-11T20:50:26.916Z,6.20
2023-03-11T20:55:31.954Z,7.90
2023-03-11T21:00:35.520Z,3.83
2023-03-11T21:05:40.716Z,8.30
2023-03-11T21:10:45.496Z,1.30
2023-03-11T21:15:48.915Z,7.95
2023-03-11T21:20:52.867Z,3.67
2023-03-11T21:26:01.298Z,2.88
2023-03-11T21:31:06.320Z,0.90
2023-03-11T21:41:17.664Z,1.23
2023-03-11T21:46:23.886Z,3.60
2023-03-11T21:51:28.118Z,2.65
2023-03-11T21:56:32.846Z,2.47
2023-03-11T22:01:36.185Z,1.92
2023-03-11T22:06:40.207Z,2.78
2023-03-11T22:11:44.975Z,2.33
2023-03-11T22:16:48.529Z,3.70
2023-03-11T22:21:51.831Z,6.82
2023-03-11T22:26:56.623Z,1.40
2023-03-11T22:32:00.449Z,1.38
2023-03-11T22:37:03.869Z,1.90
2023-03-11T22:42:08.699Z,7.53
2023-03-11T22:47:12.198Z,1.92
2023-03-11T22:52:16.117Z,0.70
2023-03-11T22:57:20.776Z,4.65
2023-03-11T23:02:24.188Z,2.25
2023-03-11T23:07:28.105Z,7.10
2023-03-11T23:12:32.853Z,1.33
2023-03-11T23:17:36.563Z,2.92
2023-03-11T23:22:41.612Z,7.25
2023-03-11T23:27:47.099Z,3.25
2023-03-11T23:32:51.469Z,9.25
2023-03-11T23:37:54.964Z,3.60
2023-03-11T23:43:00.658Z,4.18
2023-03-11T23:48:04.004Z,6.90
2023-03-11T23:53:07.210Z,1.58
2023-03-11T23:58:12.086Z,1.05
